Grand Duke — ZJL9821 — position and weather

sailwx.info

Track history (hours):
 
Tides and Currents Weather Stations Pressure Air Temp Water Temp Dewpoint Dewpoint Depression Visibility Wind Speed Wind Dir Waves Ship Positions

Grand Duke

Last reported at 2017-Oct-19 23:42 UTC. Time now 2017-Oct-20 12:38 UTC.
Position N 26°06' W 080°10'.

Length 22 m.

Type: Pleasure craft. MMSI: 378112776.

Date/timePositionNaut miles runAvg speedWind from/ knotsBaromVisibWave heightAir tempDewpointWater temp
2017-Oct-19 23:42N 26°06' W 080°10'0 0.0
2017-Oct-19 23:30N 26°06' W 080°10'0 0.0
2017-Oct-19 23:00N 26°06' W 080°10'0 0.0
2017-Oct-19 22:30N 26°06' W 080°10'0 0.0
2017-Oct-19 22:00N 26°06' W 080°10'0 0.0
2017-Oct-19 21:30N 26°06' W 080°10'0 0.0
2017-Oct-19 21:00N 26°06' W 080°10'0 0.0
2017-Oct-19 20:18N 26°06' W 080°10'0 0.0
2017-Oct-19 20:00N 26°06' W 080°10'0 0.0
2017-Oct-19 19:30N 26°06' W 080°10'0 0.0
2017-Oct-19 19:00N 26°06' W 080°10'0 0.0
2017-Oct-19 18:30N 26°06' W 080°10'0 0.0
2017-Oct-19 17:51N 26°06' W 080°10'1 2.2
2017-Oct-19 17:30N 26°07' W 080°10'2 3.7
2017-Oct-19 17:00N 26°07' W 080°08'510.9
2017-Oct-19 16:30N 26°10' W 080°02'610.5
2017-Oct-19 15:53N 26°15' W 079°58'0 0.7
2017-Oct-19 15:23N 26°15' W 079°58'3 7.2
2017-Oct-19 15:00N 26°13' W 080°00'1 2.8
2017-Oct-19 14:30N 26°13' W 080°02'2 3.6
2017-Oct-19 14:00N 26°15' W 080°01'3 5.0
2017-Oct-19 13:28N 26°16' W 079°58'3 6.1
2017-Oct-19 13:00N 26°15' W 080°01'2 4.2
2017-Oct-19 12:30N 26°13' W 080°03'510.1
2017-Oct-19 12:00N 26°08' W 080°04'4 7.5
2017-Oct-19 11:30N 26°07' W 080°08'2 3.8
2017-Oct-19 11:00N 26°06' W 080°10'1 1.0
2017-Oct-19 10:18N 26°06' W 080°10'0 0.0
2017-Oct-19 09:54N 26°06' W 080°10'0 0.0
2017-Oct-19 09:24N 26°06' W 080°10'0 0.0
2017-Oct-19 08:54N 26°06' W 080°10'0 0.0
2017-Oct-19 08:24N 26°06' W 080°10'0 0.0
2017-Oct-19 07:54N 26°06' W 080°10'0 0.0
2017-Oct-19 07:21N 26°06' W 080°10'0 0.0
2017-Oct-19 06:54N 26°06' W 080°10'0 0.0
2017-Oct-19 06:27N 26°06' W 080°10'0 0.0
2017-Oct-19 05:57N 26°06' W 080°10'0 0.0
2017-Oct-19 05:27N 26°06' W 080°10'0 0.0
2017-Oct-19 04:57N 26°06' W 080°10'0 0.0
2017-Oct-19 04:27N 26°06' W 080°10'0 0.0
2017-Oct-19 04:00N 26°06' W 080°10'0 0.0
2017-Oct-19 03:30N 26°06' W 080°10'0 0.0
2017-Oct-19 03:00N 26°06' W 080°10'0 0.0
2017-Oct-19 02:30N 26°06' W 080°10'0 0.0
2017-Oct-19 02:00N 26°06' W 080°10'0 0.0
2017-Oct-19 01:30N 26°06' W 080°10'0 0.0
2017-Oct-19 00:48N 26°06' W 080°10'0 0.0
2017-Oct-19 00:30N 26°06' W 080°10'0 0.0
2017-Oct-19 00:00N 26°06' W 080°10'0 0.0
2017-Oct-18 23:30N 26°06' W 080°10'0 0.0
2017-Oct-18 23:00N 26°06' W 080°10'0 0.0
2017-Oct-18 22:30N 26°06' W 080°10'0 0.0
2017-Oct-18 22:00N 26°06' W 080°10'0 0.0
2017-Oct-18 21:21N 26°06' W 080°10'0 0.0
2017-Oct-18 20:51N 26°06' W 080°10'0 0.0
2017-Oct-18 20:21N 26°06' W 080°10'0 0.0
2017-Oct-18 19:51N 26°06' W 080°10'0 0.0
2017-Oct-18 19:24N 26°06' W 080°10'0 0.0
2017-Oct-18 18:54N 26°06' W 080°10'  
Track history (hours):
 
Tides and Currents Weather Stations Pressure Air Temp Water Temp Dewpoint Dewpoint Depression Visibility Wind Speed Wind Dir Waves Ship Positions

Grand Duke

Last reported at 2017-Oct-19 23:42 UTC. Time now 2017-Oct-20 12:38 UTC.
Position N 26°06' W 080°10'.

Length 22 m.

Type: Pleasure craft. MMSI: 378112776.

Date/timePositionNaut miles runAvg speedWind from/ knotsBaromVisibWave heightAir tempDewpointWater temp
2017-Oct-19 23:42N 26°06' W 080°10'0 0.0
2017-Oct-19 23:30N 26°06' W 080°10'0 0.0
2017-Oct-19 23:00N 26°06' W 080°10'0 0.0
2017-Oct-19 22:30N 26°06' W 080°10'0 0.0
2017-Oct-19 22:00N 26°06' W 080°10'0 0.0
2017-Oct-19 21:30N 26°06' W 080°10'0 0.0
2017-Oct-19 21:00N 26°06' W 080°10'0 0.0
2017-Oct-19 20:18N 26°06' W 080°10'0 0.0
2017-Oct-19 20:00N 26°06' W 080°10'0 0.0
2017-Oct-19 19:30N 26°06' W 080°10'0 0.0
2017-Oct-19 19:00N 26°06' W 080°10'0 0.0
2017-Oct-19 18:30N 26°06' W 080°10'0 0.0
2017-Oct-19 17:51N 26°06' W 080°10'1 2.2
2017-Oct-19 17:30N 26°07' W 080°10'2 3.7
2017-Oct-19 17:00N 26°07' W 080°08'510.9
2017-Oct-19 16:30N 26°10' W 080°02'610.5
2017-Oct-19 15:53N 26°15' W 079°58'0 0.7
2017-Oct-19 15:23N 26°15' W 079°58'3 7.2
2017-Oct-19 15:00N 26°13' W 080°00'1 2.8
2017-Oct-19 14:30N 26°13' W 080°02'2 3.6
2017-Oct-19 14:00N 26°15' W 080°01'3 5.0
2017-Oct-19 13:28N 26°16' W 079°58'3 6.1
2017-Oct-19 13:00N 26°15' W 080°01'2 4.2
2017-Oct-19 12:30N 26°13' W 080°03'510.1
2017-Oct-19 12:00N 26°08' W 080°04'4 7.5
2017-Oct-19 11:30N 26°07' W 080°08'2 3.8
2017-Oct-19 11:00N 26°06' W 080°10'1 1.0
2017-Oct-19 10:18N 26°06' W 080°10'0 0.0
2017-Oct-19 09:54N 26°06' W 080°10'0 0.0
2017-Oct-19 09:24N 26°06' W 080°10'0 0.0
2017-Oct-19 08:54N 26°06' W 080°10'0 0.0
2017-Oct-19 08:24N 26°06' W 080°10'0 0.0
2017-Oct-19 07:54N 26°06' W 080°10'0 0.0
2017-Oct-19 07:21N 26°06' W 080°10'0 0.0
2017-Oct-19 06:54N 26°06' W 080°10'0 0.0
2017-Oct-19 06:27N 26°06' W 080°10'0 0.0
2017-Oct-19 05:57N 26°06' W 080°10'0 0.0
2017-Oct-19 05:27N 26°06' W 080°10'0 0.0
2017-Oct-19 04:57N 26°06' W 080°10'0 0.0
2017-Oct-19 04:27N 26°06' W 080°10'0 0.0
2017-Oct-19 04:00N 26°06' W 080°10'0 0.0
2017-Oct-19 03:30N 26°06' W 080°10'0 0.0
2017-Oct-19 03:00N 26°06' W 080°10'0 0.0
2017-Oct-19 02:30N 26°06' W 080°10'0 0.0
2017-Oct-19 02:00N 26°06' W 080°10'0 0.0
2017-Oct-19 01:30N 26°06' W 080°10'0 0.0
2017-Oct-19 00:48N 26°06' W 080°10'0 0.0
2017-Oct-19 00:30N 26°06' W 080°10'0 0.0
2017-Oct-19 00:00N 26°06' W 080°10'0 0.0
2017-Oct-18 23:30N 26°06' W 080°10'0 0.0
2017-Oct-18 23:00N 26°06' W 080°10'0 0.0
2017-Oct-18 22:30N 26°06' W 080°10'0 0.0
2017-Oct-18 22:00N 26°06' W 080°10'0 0.0
2017-Oct-18 21:21N 26°06' W 080°10'0 0.0
2017-Oct-18 20:51N 26°06' W 080°10'0 0.0
2017-Oct-18 20:21N 26°06' W 080°10'0 0.0
2017-Oct-18 19:51N 26°06' W 080°10'0 0.0
2017-Oct-18 19:24N 26°06' W 080°10'0 0.0
2017-Oct-18 18:54N 26°06' W 080°10'  

Dump ship's entire track history